createdAt,value
2018-07-12T00:00:04.024Z,22.61
2018-07-12T00:02:31.466Z,22.62
2018-07-12T00:04:58.808Z,22.65
2018-07-12T00:07:26.144Z,22.64
2018-07-12T00:09:53.570Z,22.64
2018-07-12T00:12:20.930Z,22.65
2018-07-12T00:14:48.310Z,22.65
2018-07-12T00:17:15.615Z,22.64
2018-07-12T00:19:42.954Z,22.66
2018-07-12T00:22:10.299Z,22.65
2018-07-12T00:24:37.628Z,22.66
2018-07-12T00:27:05.233Z,22.67
2018-07-12T00:29:32.631Z,22.66
2018-07-12T00:32:00.045Z,22.67
2018-07-12T00:34:27.382Z,22.67
2018-07-12T00:36:54.756Z,22.66
2018-07-12T00:39:22.061Z,22.67
2018-07-12T00:41:49.387Z,22.68
2018-07-12T00:44:16.686Z,22.68
2018-07-12T00:46:44.108Z,22.68
2018-07-12T00:49:11.409Z,22.68
2018-07-12T00:51:38.744Z,22.66
2018-07-12T00:54:06.015Z,22.65
2018-07-12T00:56:33.344Z,22.65
2018-07-12T00:59:00.691Z,22.65
2018-07-12T01:01:28.041Z,22.65
2018-07-12T01:03:55.350Z,22.64
2018-07-12T01:06:22.716Z,22.64
2018-07-12T01:08:50.049Z,22.63
2018-07-12T01:11:17.402Z,22.61
2018-07-12T01:13:44.717Z,22.60
2018-07-12T01:16:12.040Z,22.59
2018-07-12T01:18:39.464Z,22.59
2018-07-12T01:21:06.819Z,22.58
2018-07-12T01:23:34.115Z,22.57
2018-07-12T01:26:01.493Z,22.58
2018-07-12T01:28:28.808Z,22.58
2018-07-12T01:30:56.196Z,22.59
2018-07-12T01:33:23.524Z,22.57
2018-07-12T01:35:50.860Z,22.55
2018-07-12T01:38:18.190Z,22.53
2018-07-12T01:40:45.521Z,22.50
2018-07-12T01:43:12.816Z,22.46
2018-07-12T01:45:40.197Z,22.40
2018-07-12T01:48:07.519Z,22.34
2018-07-12T01:50:34.941Z,22.28
2018-07-12T01:53:02.312Z,22.21
2018-07-12T01:55:29.726Z,22.13
2018-07-12T01:57:57.072Z,22.08
2018-07-12T02:00:24.393Z,22.02
2018-07-12T02:02:51.764Z,21.96
2018-07-12T02:05:19.307Z,21.89
2018-07-12T02:07:47.441Z,21.83
2018-07-12T02:10:14.926Z,21.77
2018-07-12T02:12:42.455Z,21.72
2018-07-12T02:15:09.918Z,21.68
2018-07-12T02:17:37.313Z,21.60
2018-07-12T02:20:04.637Z,21.55
2018-07-12T02:22:31.989Z,21.49
2018-07-12T02:24:59.316Z,21.43
2018-07-12T02:27:26.644Z,21.39
2018-07-12T02:29:53.957Z,21.35
2018-07-12T02:32:21.337Z,21.33
2018-07-12T02:34:48.721Z,21.29
2018-07-12T02:37:16.067Z,21.23
2018-07-12T02:39:43.442Z,21.18
2018-07-12T02:42:10.816Z,21.15
2018-07-12T02:44:38.156Z,21.12
2018-07-12T02:47:05.503Z,21.12
2018-07-12T02:49:32.848Z,21.08
2018-07-12T02:52:00.206Z,21.07
2018-07-12T02:54:27.541Z,21.06
2018-07-12T02:56:54.906Z,21.05
2018-07-12T02:59:22.243Z,21.04
2018-07-12T03:01:49.635Z,21.03
2018-07-12T03:04:16.993Z,21.01
2018-07-12T03:06:44.424Z,20.99
2018-07-12T03:09:11.868Z,20.95
2018-07-12T03:11:39.217Z,20.92
2018-07-12T03:14:06.710Z,20.90
2018-07-12T03:16:34.093Z,20.89
2018-07-12T03:19:01.471Z,20.87
2018-07-12T03:21:28.851Z,20.88
2018-07-12T03:23:56.151Z,20.90
2018-07-12T03:26:23.531Z,20.92
2018-07-12T03:28:50.899Z,20.96
2018-07-12T03:31:18.273Z,20.99
2018-07-12T03:33:45.637Z,21.01
2018-07-12T03:36:12.953Z,21.04
2018-07-12T03:38:40.336Z,21.05
2018-07-12T03:41:07.634Z,21.11
2018-07-12T03:43:34.926Z,21.15
2018-07-12T03:46:02.346Z,21.18
2018-07-12T03:48:29.727Z,21.22
2018-07-12T03:50:57.062Z,21.25
2018-07-12T03:53:24.477Z,21.28
2018-07-12T03:55:51.889Z,21.30
2018-07-12T03:58:19.241Z,21.30
2018-07-12T04:00:46.637Z,21.30
2018-07-12T04:03:14.089Z,21.30
2018-07-12T04:05:41.530Z,21.34
2018-07-12T04:08:08.963Z,21.40
2018-07-12T04:10:36.353Z,21.46
2018-07-12T04:13:03.686Z,21.50
2018-07-12T04:15:31.858Z,21.55
2018-07-12T04:17:59.282Z,21.59
2018-07-12T04:20:26.723Z,21.64
2018-07-12T04:22:54.159Z,21.69
2018-07-12T04:25:21.570Z,21.73
2018-07-12T04:27:49.135Z,21.75
2018-07-12T04:30:16.483Z,21.79
2018-07-12T04:32:43.827Z,21.84
2018-07-12T04:35:11.307Z,21.88
2018-07-12T04:37:38.709Z,21.94
2018-07-12T04:40:06.155Z,21.99
2018-07-12T04:42:33.546Z,22.04
2018-07-12T04:45:01.047Z,22.08
2018-07-12T04:47:28.536Z,22.11
2018-07-12T04:49:55.848Z,22.13
2018-07-12T04:52:23.220Z,22.15
2018-07-12T04:54:50.572Z,22.18
2018-07-12T04:57:17.935Z,22.22
2018-07-12T04:59:45.302Z,22.25
2018-07-12T05:02:12.630Z,22.28
2018-07-12T05:04:40.013Z,22.28
2018-07-12T05:07:07.400Z,22.32
2018-07-12T05:09:34.852Z,22.33
2018-07-12T05:12:03.175Z,22.32
2018-07-12T05:14:30.685Z,22.34
2018-07-12T05:16:58.029Z,22.39
2018-07-12T05:19:25.449Z,22.43
2018-07-12T05:21:52.867Z,22.43
2018-07-12T05:24:20.192Z,22.42
2018-07-12T05:26:48.310Z,22.43
2018-07-12T05:29:18.101Z,22.44
2018-07-12T05:31:46.285Z,22.44
2018-07-12T05:34:18.027Z,22.47
2018-07-12T05:37:03.627Z,22.50
2018-07-12T05:39:38.944Z,22.53
2018-07-12T05:42:13.325Z,22.53
2018-07-12T05:44:44.461Z,22.53
2018-07-12T05:47:21.387Z,22.54
2018-07-12T05:49:50.605Z,22.55
2018-07-12T06:34:45.857Z,22.79
2018-07-12T06:37:15.687Z,22.84
2018-07-12T06:39:44.710Z,22.87
2018-07-12T06:42:13.644Z,22.89
2018-07-12T06:44:43.117Z,22.94
2018-07-12T06:47:15.653Z,22.99
2018-07-12T06:49:44.635Z,23.08
2018-07-12T06:52:13.513Z,23.21
2018-07-12T06:54:43.378Z,23.35
2018-07-12T06:57:23.779Z,23.47
2018-07-12T06:59:52.519Z,23.55
2018-07-12T07:02:21.347Z,23.67
2018-07-12T07:04:50.056Z,23.78
2018-07-12T07:07:18.683Z,23.85
2018-07-12T07:09:47.683Z,23.97
2018-07-12T07:12:16.371Z,24.08
2018-07-12T07:14:45.119Z,24.25
2018-07-12T07:17:13.883Z,24.34
2018-07-12T07:19:42.708Z,24.43
2018-07-12T07:22:11.300Z,24.55
2018-07-12T07:24:39.958Z,24.64
2018-07-12T07:27:08.671Z,24.78
2018-07-12T07:29:37.234Z,25.06
2018-07-12T07:32:05.869Z,25.67
2018-07-12T07:34:34.532Z,26.33
2018-07-12T07:37:03.333Z,27.01
2018-07-12T07:39:32.049Z,27.54
2018-07-12T07:42:00.788Z,27.80
2018-07-12T07:44:29.415Z,27.87
2018-07-12T07:46:58.016Z,27.93
2018-07-12T07:49:26.583Z,27.91
2018-07-12T07:51:55.228Z,27.85
2018-07-12T07:54:23.812Z,27.78
2018-07-12T07:56:52.726Z,27.78
2018-07-12T07:59:21.596Z,27.88
2018-07-12T08:01:50.290Z,27.99
2018-07-12T08:04:19.063Z,28.17
2018-07-12T08:06:48.467Z,28.38
2018-07-12T08:09:17.363Z,28.51
2018-07-12T08:11:46.270Z,28.73
2018-07-12T08:14:15.088Z,28.88
2018-07-12T08:16:45.940Z,28.96
2018-07-12T08:19:14.802Z,29.00
2018-07-12T08:21:43.475Z,29.14
2018-07-12T08:24:12.248Z,29.47
2018-07-12T08:26:41.192Z,29.84
2018-07-12T08:29:12.060Z,29.97
2018-07-12T08:31:40.958Z,30.18
2018-07-12T08:34:09.812Z,30.54
2018-07-12T08:36:38.810Z,31.09
2018-07-12T08:39:10.849Z,31.73
2018-07-12T08:41:39.887Z,32.52
2018-07-12T08:44:08.962Z,33.32
2018-07-12T08:46:38.125Z,34.05
2018-07-12T08:49:07.160Z,34.72
2018-07-12T08:51:36.179Z,34.96
2018-07-12T08:54:05.307Z,34.89
2018-07-12T08:56:34.448Z,35.11
2018-07-12T08:59:03.446Z,35.45
2018-07-12T09:01:32.232Z,35.78
2018-07-12T09:04:01.461Z,36.20
2018-07-12T09:06:30.205Z,36.60
2018-07-12T09:08:58.881Z,36.63
2018-07-12T09:11:28.135Z,36.35
2018-07-12T09:13:56.753Z,35.96
2018-07-12T09:16:25.362Z,35.45
2018-07-12T09:18:53.892Z,35.08
2018-07-12T09:21:22.395Z,35.27
2018-07-12T09:23:51.328Z,35.88
2018-07-12T09:26:20.270Z,36.49
2018-07-12T09:28:48.851Z,37.30
2018-07-12T09:31:17.457Z,37.83
2018-07-12T09:33:47.254Z,38.60
2018-07-12T09:36:15.853Z,39.30
2018-07-12T09:38:52.808Z,39.64
2018-07-12T09:41:22.044Z,39.65
2018-07-12T09:43:51.039Z,39.14
2018-07-12T09:46:19.748Z,38.63
2018-07-12T09:48:49.538Z,38.66
2018-07-12T09:51:18.112Z,38.47
2018-07-12T09:53:47.455Z,38.09
2018-07-12T09:56:16.073Z,38.06
2018-07-12T09:58:44.681Z,37.59
2018-07-12T10:01:18.528Z,37.18
2018-07-12T10:03:53.638Z,36.66
2018-07-12T10:06:26.128Z,36.37
2018-07-12T10:09:59.943Z,37.10
2018-07-12T10:12:33.085Z,38.62
2018-07-12T10:15:07.505Z,39.58
2018-07-12T10:17:41.463Z,39.69
2018-07-12T10:20:10.384Z,39.15
2018-07-12T10:22:39.056Z,38.38
2018-07-12T10:25:08.007Z,37.70
2018-07-12T10:27:36.699Z,37.37
2018-07-12T10:30:05.641Z,38.36
2018-07-12T10:32:34.572Z,39.72
2018-07-12T10:35:03.268Z,40.66
2018-07-12T10:37:31.889Z,41.21
2018-07-12T10:40:00.437Z,42.03
2018-07-12T10:42:29.017Z,41.96
2018-07-12T10:44:57.553Z,41.81
2018-07-12T10:47:26.821Z,42.15
2018-07-12T10:49:55.409Z,42.66
2018-07-12T10:52:24.008Z,42.04
2018-07-12T10:54:52.545Z,41.19
2018-07-12T10:57:21.143Z,41.01
2018-07-12T10:59:49.767Z,41.67
2018-07-12T11:02:18.452Z,41.78
2018-07-12T11:04:47.094Z,42.35
2018-07-12T11:07:15.860Z,42.09
2018-07-12T11:09:44.478Z,41.44
2018-07-12T11:12:13.301Z,40.47
2018-07-12T11:14:41.839Z,39.36
2018-07-12T11:17:10.526Z,38.31
2018-07-12T11:19:39.132Z,38.14
2018-07-12T11:22:07.845Z,38.29
2018-07-12T11:24:36.568Z,38.40
2018-07-12T11:27:05.253Z,37.99
2018-07-12T11:29:44.921Z,37.68
2018-07-12T11:32:13.545Z,37.22
2018-07-12T11:34:42.083Z,37.08
2018-07-12T11:37:15.371Z,37.06
2018-07-12T11:39:43.942Z,36.94
2018-07-12T11:42:12.465Z,36.79
2018-07-12T11:44:40.980Z,36.62
2018-07-12T11:47:09.594Z,36.47
2018-07-12T11:49:38.123Z,36.30
2018-07-12T11:52:07.065Z,36.04
2018-07-12T11:54:35.751Z,35.99
2018-07-12T11:57:04.510Z,35.87
2018-07-12T11:59:33.175Z,35.76
2018-07-12T12:02:04.310Z,35.69
2018-07-12T12:04:32.947Z,35.56
2018-07-12T12:07:01.881Z,35.34
2018-07-12T12:09:30.475Z,35.10
2018-07-12T12:11:59.266Z,34.94
2018-07-12T12:14:27.885Z,34.87
2018-07-12T12:16:56.515Z,34.79
2018-07-12T12:19:25.176Z,34.68
2018-07-12T12:21:54.117Z,34.57
2018-07-12T12:24:22.776Z,34.46
2018-07-12T12:26:51.637Z,34.30
2018-07-12T12:29:20.305Z,34.09
2018-07-12T12:31:48.973Z,33.93
2018-07-12T12:34:17.779Z,33.77
2018-07-12T12:36:46.359Z,33.61
2018-07-12T12:39:15.004Z,33.43
2018-07-12T12:41:43.714Z,33.32
2018-07-12T12:44:12.576Z,33.29
2018-07-12T12:46:41.304Z,33.24
2018-07-12T12:49:10.050Z,33.11
2018-07-12T12:51:39.001Z,32.95
2018-07-12T12:54:07.756Z,32.73
2018-07-12T12:56:36.414Z,32.55
2018-07-12T12:59:05.087Z,32.44
2018-07-12T13:01:33.820Z,32.37
2018-07-12T13:04:02.609Z,32.31
2018-07-12T13:06:31.375Z,32.20
2018-07-12T13:09:00.867Z,32.09
2018-07-12T13:11:29.701Z,31.98
2018-07-12T13:13:58.498Z,32.00
2018-07-12T13:16:27.231Z,32.08
2018-07-12T13:18:56.439Z,32.17
2018-07-12T13:21:25.099Z,32.27
2018-07-12T13:23:53.916Z,32.36
2018-07-12T13:26:22.548Z,32.44
2018-07-12T13:28:52.146Z,32.51
2018-07-12T13:31:20.702Z,32.39
2018-07-12T13:33:49.285Z,32.28
2018-07-12T13:36:17.904Z,32.25
2018-07-12T13:38:46.486Z,31.65
2018-07-12T13:41:15.042Z,32.38
2018-07-12T13:43:43.656Z,32.43
2018-07-12T13:46:12.174Z,32.35
2018-07-12T13:48:40.801Z,32.34
2018-07-12T13:51:09.390Z,32.33
2018-07-12T13:53:38.107Z,32.38
2018-07-12T13:56:06.620Z,32.41
2018-07-12T13:58:35.260Z,32.46
2018-07-12T14:01:03.946Z,32.51
2018-07-12T14:03:32.742Z,32.53
2018-07-12T14:06:01.776Z,32.54
2018-07-12T14:08:30.429Z,32.55
2018-07-12T14:10:58.998Z,32.48
2018-07-12T14:13:27.621Z,32.51
2018-07-12T14:15:56.246Z,32.52
2018-07-12T14:18:24.927Z,32.50
2018-07-12T14:20:53.616Z,32.54
2018-07-12T14:23:22.282Z,32.67
2018-07-12T14:25:50.859Z,32.77
2018-07-12T14:28:19.412Z,32.80
2018-07-12T14:30:47.947Z,32.89
2018-07-12T14:33:16.576Z,32.95
2018-07-12T14:35:45.115Z,32.96
2018-07-12T14:38:13.643Z,32.84
2018-07-12T14:40:42.202Z,32.69
2018-07-12T14:43:10.772Z,32.52
2018-07-12T14:45:39.358Z,32.40
2018-07-12T14:48:08.156Z,32.36
2018-07-12T14:50:36.828Z,32.31
2018-07-12T14:53:05.501Z,32.28
2018-07-12T14:55:34.027Z,32.23
2018-07-12T14:58:02.672Z,32.18
2018-07-12T15:00:31.491Z,32.12
2018-07-12T15:03:00.084Z,32.13
2018-07-12T15:05:28.804Z,32.19
2018-07-12T15:07:57.441Z,32.24
2018-07-12T15:10:26.116Z,32.26
2018-07-12T15:12:54.662Z,32.28
2018-07-12T15:15:23.222Z,32.26
2018-07-12T15:17:51.692Z,32.25
2018-07-12T15:20:20.302Z,32.24
2018-07-12T15:22:48.766Z,32.20
2018-07-12T15:25:17.291Z,32.17
2018-07-12T15:27:46.191Z,32.16
2018-07-12T15:30:14.735Z,32.11
2018-07-12T15:32:43.309Z,32.08
2018-07-12T15:35:12.308Z,32.07
2018-07-12T15:37:40.902Z,32.08
2018-07-12T15:40:09.555Z,32.07
2018-07-12T15:42:38.092Z,32.02
2018-07-12T15:45:06.743Z,32.00
2018-07-12T15:47:35.419Z,32.02
2018-07-12T15:50:04.002Z,31.99
2018-07-12T15:52:32.609Z,31.96
2018-07-12T15:55:01.263Z,31.93
2018-07-12T15:57:29.847Z,31.89
2018-07-12T15:59:58.445Z,31.79
2018-07-12T16:02:27.039Z,31.69
2018-07-12T16:04:57.154Z,31.59
2018-07-12T16:07:26.238Z,31.51
2018-07-12T16:09:55.990Z,31.48
2018-07-12T16:12:24.615Z,31.49
2018-07-12T16:14:53.447Z,31.53
2018-07-12T16:17:22.401Z,31.54
2018-07-12T16:19:51.089Z,31.55
2018-07-12T16:22:19.805Z,31.49
2018-07-12T16:24:48.448Z,31.41
2018-07-12T16:27:17.071Z,31.30
2018-07-12T16:29:47.112Z,31.24
2018-07-12T16:32:17.300Z,31.22
2018-07-12T16:34:49.445Z,31.22
2018-07-12T16:37:18.447Z,31.28
2018-07-12T16:39:48.816Z,31.34
2018-07-12T16:42:17.877Z,31.39
2018-07-12T16:44:46.621Z,31.42
2018-07-12T16:47:15.460Z,31.47
2018-07-12T16:49:44.285Z,31.49
2018-07-12T16:52:12.944Z,31.52
2018-07-12T16:54:41.659Z,31.59
2018-07-12T16:57:13.673Z,31.63
2018-07-12T16:59:42.510Z,31.63
2018-07-12T17:02:11.186Z,31.60
2018-07-12T17:04:39.935Z,31.53
2018-07-12T17:07:08.657Z,31.44
2018-07-12T17:09:37.283Z,31.37
2018-07-12T17:12:05.976Z,31.29
2018-07-12T17:14:34.588Z,31.16
2018-07-12T17:17:03.915Z,31.15
2018-07-12T17:19:32.542Z,31.13
2018-07-12T17:22:01.470Z,31.08
2018-07-12T17:24:30.089Z,31.06
2018-07-12T17:27:00.100Z,31.02
2018-07-12T17:29:28.724Z,31.07
2018-07-12T17:31:59.165Z,31.09
2018-07-12T17:34:28.348Z,31.08
2018-07-12T17:36:57.327Z,31.04
2018-07-12T17:39:26.201Z,31.00
2018-07-12T17:41:54.954Z,30.97
2018-07-12T17:44:23.645Z,30.87
2018-07-12T17:46:52.302Z,29.99
2018-07-12T17:49:20.981Z,30.63
2018-07-12T17:51:49.653Z,30.57
2018-07-12T17:54:19.181Z,30.46
2018-07-12T17:56:48.369Z,30.43
2018-07-12T17:59:17.378Z,30.34
2018-07-12T18:01:48.323Z,30.26
2018-07-12T18:04:18.318Z,30.19
2018-07-12T18:06:47.145Z,30.12
2018-07-12T18:09:15.964Z,30.04
2018-07-12T18:11:44.781Z,29.96
2018-07-12T18:14:13.601Z,29.89
2018-07-12T18:16:43.133Z,29.78
2018-07-12T18:19:12.187Z,29.74
2018-07-12T18:21:41.057Z,29.69
2018-07-12T18:24:09.976Z,29.60
2018-07-12T18:26:38.734Z,29.50
2018-07-12T18:29:07.524Z,29.43
2018-07-12T18:31:36.318Z,29.34
2018-07-12T18:34:05.147Z,29.27
2018-07-12T18:36:34.606Z,29.19
2018-07-12T18:39:04.686Z,29.13
2018-07-12T18:41:36.989Z,29.06
2018-07-12T18:44:06.144Z,28.98
2018-07-12T18:46:35.065Z,28.90
2018-07-12T18:49:04.643Z,28.83
2018-07-12T18:51:33.718Z,28.76
2018-07-12T18:54:02.621Z,28.69
2018-07-12T18:56:31.576Z,28.65
2018-07-12T18:59:00.468Z,28.60
2018-07-12T19:01:29.345Z,28.55
2018-07-12T19:03:58.227Z,28.51
2018-07-12T19:06:27.148Z,28.46
2018-07-12T19:08:55.982Z,28.39
2018-07-12T19:11:24.686Z,28.33
2018-07-12T19:13:53.485Z,28.26
2018-07-12T19:16:22.492Z,28.19
2018-07-12T19:18:51.223Z,28.13
2018-07-12T19:21:19.969Z,28.07
2018-07-12T19:23:49.654Z,27.99
2018-07-12T19:26:18.786Z,27.95
2018-07-12T19:28:47.521Z,27.89
2018-07-12T19:31:16.349Z,27.83
2018-07-12T19:33:45.181Z,27.80
2018-07-12T19:36:14.082Z,27.74
2018-07-12T19:38:42.869Z,27.68
2018-07-12T19:41:11.600Z,27.63
2018-07-12T19:43:40.293Z,27.56
2018-07-12T19:46:09.052Z,27.50
2018-07-12T19:48:37.876Z,27.44
2018-07-12T19:51:07.040Z,27.38
2018-07-12T19:53:35.819Z,27.32
2018-07-12T19:56:04.664Z,27.27
2018-07-12T19:58:33.367Z,27.23
2018-07-12T20:01:02.177Z,27.20
2018-07-12T20:03:30.873Z,27.17
2018-07-12T20:05:59.521Z,27.11
2018-07-12T20:08:28.317Z,27.05
2018-07-12T20:10:56.910Z,27.00
2018-07-12T20:13:25.590Z,26.97
2018-07-12T20:15:54.143Z,26.94
2018-07-12T20:18:23.731Z,26.90
2018-07-12T20:20:52.302Z,26.86
2018-07-12T20:23:20.862Z,26.83
2018-07-12T20:25:49.437Z,26.81
2018-07-12T20:28:17.960Z,26.81
2018-07-12T20:30:46.438Z,26.79
2018-07-12T20:33:15.067Z,26.78
2018-07-12T20:35:43.708Z,26.76
2018-07-12T20:38:12.345Z,26.73
2018-07-12T20:40:40.952Z,26.71
2018-07-12T20:43:10.428Z,26.70
2018-07-12T20:45:39.034Z,26.68
2018-07-12T20:48:07.695Z,26.65
2018-07-12T20:50:36.366Z,26.62
2018-07-12T20:53:04.970Z,26.58
2018-07-12T20:55:33.484Z,26.54
2018-07-12T20:58:01.943Z,26.48
2018-07-12T21:00:30.515Z,26.41
2018-07-12T21:02:59.048Z,26.36
2018-07-12T21:05:27.634Z,26.29
2018-07-12T21:07:56.218Z,26.24
2018-07-12T21:10:24.886Z,26.17
2018-07-12T21:12:53.479Z,26.10
2018-07-12T21:15:22.079Z,26.04
2018-07-12T21:17:54.302Z,25.97
2018-07-12T21:20:22.883Z,25.86
2018-07-12T21:22:51.702Z,25.79
2018-07-12T21:25:20.478Z,25.73
2018-07-12T21:27:49.138Z,25.65
2018-07-12T21:30:17.793Z,25.58
2018-07-12T21:32:46.391Z,25.51
2018-07-12T21:35:14.995Z,25.44
2018-07-12T21:37:43.678Z,25.38
2018-07-12T21:40:12.969Z,25.30
2018-07-12T21:42:41.917Z,25.26
2018-07-12T21:45:10.623Z,25.19
2018-07-12T21:47:39.271Z,25.13
2018-07-12T21:50:08.021Z,25.07
2018-07-12T21:52:36.640Z,25.03
2018-07-12T21:55:05.432Z,24.99
2018-07-12T21:57:34.324Z,24.94
2018-07-12T22:00:03.021Z,24.91
2018-07-12T22:02:32.535Z,24.86
2018-07-12T22:05:01.285Z,24.81
2018-07-12T22:07:43.146Z,24.75
2018-07-12T22:10:11.855Z,24.71
2018-07-12T22:12:40.620Z,24.63
2018-07-12T22:15:09.746Z,24.58
2018-07-12T22:17:38.462Z,24.50
2018-07-12T22:20:07.163Z,24.43
2018-07-12T22:22:36.619Z,24.38
2018-07-12T22:25:05.268Z,24.35
2018-07-12T22:27:33.986Z,24.32
2018-07-12T22:30:02.708Z,24.27
2018-07-12T22:32:31.441Z,24.26
2018-07-12T22:35:00.146Z,24.24
2018-07-12T22:37:28.924Z,24.18
2018-07-12T22:39:57.571Z,24.15
2018-07-12T22:42:26.273Z,24.11
2018-07-12T22:44:54.787Z,24.08
2018-07-12T22:47:23.442Z,24.02
2018-07-12T22:49:51.988Z,23.98
2018-07-12T22:52:21.634Z,23.93
2018-07-12T22:54:50.853Z,23.91
2018-07-12T22:57:19.646Z,23.86
2018-07-12T22:59:48.876Z,23.81
2018-07-12T23:02:17.605Z,23.78
2018-07-12T23:04:46.263Z,23.75
2018-07-12T23:07:14.933Z,23.73
2018-07-12T23:09:43.736Z,23.69
2018-07-12T23:12:12.537Z,23.66
2018-07-12T23:14:41.110Z,23.63
2018-07-12T23:17:09.728Z,23.61
2018-07-12T23:19:38.382Z,23.58
2018-07-12T23:22:06.967Z,23.54
2018-07-12T23:24:35.583Z,23.51
2018-07-12T23:27:04.150Z,23.49
2018-07-12T23:29:32.746Z,23.44
2018-07-12T23:32:01.289Z,23.41
2018-07-12T23:34:29.997Z,23.38
2018-07-12T23:36:58.572Z,23.34
2018-07-12T23:39:27.345Z,23.31
2018-07-12T23:41:56.026Z,23.26
2018-07-12T23:44:24.553Z,23.24
2018-07-12T23:46:53.179Z,23.23
2018-07-12T23:49:21.936Z,23.20
2018-07-12T23:51:50.449Z,23.17
2018-07-12T23:54:19.102Z,23.15
2018-07-12T23:56:47.599Z,23.13
2018-07-12T23:59:16.334Z,23.11
